sensor_id;sensor_type;location;lat;lon;timestamp;temperature;humidity
64549;DHT22;49838;51.798;10.954;2023-05-15T00:00:45;22.00;29.20
64549;DHT22;49838;51.798;10.954;2023-05-15T00:03:13;22.00;29.30
64549;DHT22;49838;51.798;10.954;2023-05-15T00:05:41;22.00;29.30
64549;DHT22;49838;51.798;10.954;2023-05-15T00:08:08;22.00;29.30
64549;DHT22;49838;51.798;10.954;2023-05-15T00:10:36;22.00;29.30
64549;DHT22;49838;51.798;10.954;2023-05-15T00:13:04;22.00;29.30
64549;DHT22;49838;51.798;10.954;2023-05-15T00:15:32;21.90;29.30
64549;DHT22;49838;51.798;10.954;2023-05-15T00:17:59;21.90;29.30
64549;DHT22;49838;51.798;10.954;2023-05-15T00:20:27;21.90;29.40
64549;DHT22;49838;51.798;10.954;2023-05-15T00:22:54;21.80;29.30
64549;DHT22;49838;51.798;10.954;2023-05-15T00:25:23;21.80;29.40
64549;DHT22;49838;51.798;10.954;2023-05-15T00:27:50;21.80;29.40
64549;DHT22;49838;51.798;10.954;2023-05-15T00:30:19;21.80;29.40
64549;DHT22;49838;51.798;10.954;2023-05-15T00:32:46;21.70;29.40
64549;DHT22;49838;51.798;10.954;2023-05-15T00:35:14;21.70;29.40
64549;DHT22;49838;51.798;10.954;2023-05-15T00:37:41;21.70;29.40
64549;DHT22;49838;51.798;10.954;2023-05-15T00:40:10;21.70;29.40
64549;DHT22;49838;51.798;10.954;2023-05-15T00:42:44;21.70;29.50
64549;DHT22;49838;51.798;10.954;2023-05-15T00:45:12;21.60;29.40
64549;DHT22;49838;51.798;10.954;2023-05-15T00:47:42;21.70;29.50
64549;DHT22;49838;51.798;10.954;2023-05-15T00:50:11;21.60;29.50
64549;DHT22;49838;51.798;10.954;2023-05-15T00:52:39;21.50;29.40
64549;DHT22;49838;51.798;10.954;2023-05-15T00:55:06;21.50;29.40
64549;DHT22;49838;51.798;10.954;2023-05-15T00:57:34;21.50;29.50
64549;DHT22;49838;51.798;10.954;2023-05-15T01:00:03;21.50;29.50
64549;DHT22;49838;51.798;10.954;2023-05-15T01:02:35;21.40;29.40
64549;DHT22;49838;51.798;10.954;2023-05-15T01:05:04;21.40;29.40
64549;DHT22;49838;51.798;10.954;2023-05-15T01:07:34;21.40;29.50
64549;DHT22;49838;51.798;10.954;2023-05-15T01:10:06;21.40;29.50
64549;DHT22;49838;51.798;10.954;2023-05-15T01:12:35;21.40;29.50
64549;DHT22;49838;51.798;10.954;2023-05-15T01:15:06;21.40;29.50
64549;DHT22;49838;51.798;10.954;2023-05-15T01:17:34;21.40;29.50
64549;DHT22;49838;51.798;10.954;2023-05-15T01:20:02;21.40;29.50
64549;DHT22;49838;51.798;10.954;2023-05-15T01:22:40;21.30;29.50
64549;DHT22;49838;51.798;10.954;2023-05-15T01:25:34;21.30;29.50
64549;DHT22;49838;51.798;10.954;2023-05-15T01:28:13;21.30;29.60
64549;DHT22;49838;51.798;10.954;2023-05-15T01:30:45;21.20;29.50
64549;DHT22;49838;51.798;10.954;2023-05-15T01:33:17;21.30;29.60
64549;DHT22;49838;51.798;10.954;2023-05-15T01:35:50;21.30;29.60
64549;DHT22;49838;51.798;10.954;2023-05-15T01:38:23;21.30;29.60
64549;DHT22;49838;51.798;10.954;2023-05-15T01:40:58;21.20;29.50
64549;DHT22;49838;51.798;10.954;2023-05-15T01:43:32;21.20;29.60
64549;DHT22;49838;51.798;10.954;2023-05-15T01:46:05;21.20;29.50
64549;DHT22;49838;51.798;10.954;2023-05-15T01:48:34;21.10;29.50
64549;DHT22;49838;51.798;10.954;2023-05-15T01:51:03;21.20;29.50
64549;DHT22;49838;51.798;10.954;2023-05-15T01:53:33;21.20;29.60
64549;DHT22;49838;51.798;10.954;2023-05-15T01:56:02;21.20;29.60
64549;DHT22;49838;51.798;10.954;2023-05-15T01:58:34;21.20;29.60
64549;DHT22;49838;51.798;10.954;2023-05-15T02:01:03;21.10;29.50
64549;DHT22;49838;51.798;10.954;2023-05-15T02:03:32;21.10;29.60
64549;DHT22;49838;51.798;10.954;2023-05-15T02:06:00;21.10;29.60
64549;DHT22;49838;51.798;10.954;2023-05-15T02:08:28;21.10;29.60
64549;DHT22;49838;51.798;10.954;2023-05-15T02:10:58;21.10;29.60
64549;DHT22;49838;51.798;10.954;2023-05-15T02:13:26;21.10;29.50
64549;DHT22;49838;51.798;10.954;2023-05-15T02:15:58;21.10;29.60
64549;DHT22;49838;51.798;10.954;2023-05-15T02:18:25;21.10;29.50
64549;DHT22;49838;51.798;10.954;2023-05-15T02:20:54;21.10;29.50
64549;DHT22;49838;51.798;10.954;2023-05-15T02:23:21;21.10;29.50
64549;DHT22;49838;51.798;10.954;2023-05-15T02:25:51;21.10;29.60
64549;DHT22;49838;51.798;10.954;2023-05-15T02:28:29;21.10;29.60
64549;DHT22;49838;51.798;10.954;2023-05-15T02:31:04;21.00;29.60
64549;DHT22;49838;51.798;10.954;2023-05-15T02:33:40;21.00;29.60
64549;DHT22;49838;51.798;10.954;2023-05-15T02:36:15;20.90;29.60
64549;DHT22;49838;51.798;10.954;2023-05-15T02:38:48;20.90;29.70
64549;DHT22;49838;51.798;10.954;2023-05-15T02:41:18;20.80;29.60
64549;DHT22;49838;51.798;10.954;2023-05-15T02:43:46;20.80;29.60
64549;DHT22;49838;51.798;10.954;2023-05-15T02:46:17;20.70;29.60
64549;DHT22;49838;51.798;10.954;2023-05-15T02:48:45;20.70;29.60
64549;DHT22;49838;51.798;10.954;2023-05-15T02:51:14;20.70;29.70
64549;DHT22;49838;51.798;10.954;2023-05-15T02:53:41;20.60;29.70
64549;DHT22;49838;51.798;10.954;2023-05-15T02:56:09;20.50;29.60
64549;DHT22;49838;51.798;10.954;2023-05-15T02:58:36;20.50;29.60
64549;DHT22;49838;51.798;10.954;2023-05-15T03:01:04;20.50;29.70
64549;DHT22;49838;51.798;10.954;2023-05-15T03:03:33;20.50;29.70
64549;DHT22;49838;51.798;10.954;2023-05-15T03:06:01;20.40;29.60
64549;DHT22;49838;51.798;10.954;2023-05-15T03:08:28;20.40;29.60
64549;DHT22;49838;51.798;10.954;2023-05-15T03:10:55;20.40;29.60
64549;DHT22;49838;51.798;10.954;2023-05-15T03:13:23;20.40;29.60
64549;DHT22;49838;51.798;10.954;2023-05-15T03:15:50;20.40;29.60
64549;DHT22;49838;51.798;10.954;2023-05-15T03:18:18;20.30;29.60
64549;DHT22;49838;51.798;10.954;2023-05-15T03:20:49;20.30;29.60
64549;DHT22;49838;51.798;10.954;2023-05-15T03:23:17;20.20;29.60
64549;DHT22;49838;51.798;10.954;2023-05-15T03:25:45;20.20;29.60
64549;DHT22;49838;51.798;10.954;2023-05-15T03:28:12;20.10;29.60
64549;DHT22;49838;51.798;10.954;2023-05-15T03:30:42;20.10;29.60
64549;DHT22;49838;51.798;10.954;2023-05-15T03:33:09;20.00;29.60
64549;DHT22;49838;51.798;10.954;2023-05-15T03:35:37;20.00;29.60
64549;DHT22;49838;51.798;10.954;2023-05-15T03:38:06;20.00;29.60
64549;DHT22;49838;51.798;10.954;2023-05-15T03:40:33;19.90;29.60
64549;DHT22;49838;51.798;10.954;2023-05-15T03:43:00;19.90;29.60
64549;DHT22;49838;51.798;10.954;2023-05-15T03:45:28;19.90;29.60
64549;DHT22;49838;51.798;10.954;2023-05-15T03:47:55;19.90;29.60
64549;DHT22;49838;51.798;10.954;2023-05-15T03:50:22;19.90;29.60
64549;DHT22;49838;51.798;10.954;2023-05-15T03:52:50;19.90;29.60
64549;DHT22;49838;51.798;10.954;2023-05-15T03:55:19;19.90;29.60
64549;DHT22;49838;51.798;10.954;2023-05-15T03:57:46;20.00;29.70
64549;DHT22;49838;51.798;10.954;2023-05-15T04:00:14;20.20;29.70
64549;DHT22;49838;51.798;10.954;2023-05-15T04:02:41;20.50;29.70
64549;DHT22;49838;51.798;10.954;2023-05-15T04:05:08;20.90;29.70
64549;DHT22;49838;51.798;10.954;2023-05-15T04:07:36;21.30;29.60
64549;DHT22;49838;51.798;10.954;2023-05-15T04:10:04;21.70;29.70
64549;DHT22;49838;51.798;10.954;2023-05-15T04:12:34;21.90;29.60
64549;DHT22;49838;51.798;10.954;2023-05-15T04:15:14;22.20;29.60
64549;DHT22;49838;51.798;10.954;2023-05-15T04:17:43;22.60;29.60
64549;DHT22;49838;51.798;10.954;2023-05-15T04:20:11;22.90;29.50
64549;DHT22;49838;51.798;10.954;2023-05-15T04:22:40;23.30;29.50
64549;DHT22;49838;51.798;10.954;2023-05-15T04:25:08;23.60;29.40
64549;DHT22;49838;51.798;10.954;2023-05-15T04:27:38;24.00;29.40
64549;DHT22;49838;51.798;10.954;2023-05-15T04:30:06;24.30;29.50
64549;DHT22;49838;51.798;10.954;2023-05-15T04:32:35;24.60;29.50
64549;DHT22;49838;51.798;10.954;2023-05-15T04:35:05;24.90;29.60
64549;DHT22;49838;51.798;10.954;2023-05-15T04:37:35;25.20;29.60
64549;DHT22;49838;51.798;10.954;2023-05-15T04:40:03;25.50;29.60
64549;DHT22;49838;51.798;10.954;2023-05-15T04:42:32;25.90;29.90
64549;DHT22;49838;51.798;10.954;2023-05-15T04:45:01;26.20;29.60
64549;DHT22;49838;51.798;10.954;2023-05-15T04:47:28;26.50;29.60
64549;DHT22;49838;51.798;10.954;2023-05-15T04:49:56;26.80;29.60
64549;DHT22;49838;51.798;10.954;2023-05-15T04:52:23;27.10;29.60
64549;DHT22;49838;51.798;10.954;2023-05-15T04:54:51;27.30;29.50
64549;DHT22;49838;51.798;10.954;2023-05-15T04:57:20;27.60;29.50
64549;DHT22;49838;51.798;10.954;2023-05-15T04:59:48;27.90;29.50
64549;DHT22;49838;51.798;10.954;2023-05-15T05:02:20;28.20;29.50
64549;DHT22;49838;51.798;10.954;2023-05-15T05:04:48;28.40;29.50
64549;DHT22;49838;51.798;10.954;2023-05-15T05:07:15;28.80;29.40
64549;DHT22;49838;51.798;10.954;2023-05-15T05:09:43;29.00;29.30
64549;DHT22;49838;51.798;10.954;2023-05-15T05:12:10;29.30;29.30
64549;DHT22;49838;51.798;10.954;2023-05-15T05:14:39;29.60;29.20
64549;DHT22;49838;51.798;10.954;2023-05-15T05:17:06;29.90;29.00
64549;DHT22;49838;51.798;10.954;2023-05-15T05:19:35;30.10;28.80
64549;DHT22;49838;51.798;10.954;2023-05-15T05:22:03;30.30;28.80
64549;DHT22;49838;51.798;10.954;2023-05-15T05:24:30;30.60;28.80
64549;DHT22;49838;51.798;10.954;2023-05-15T05:26:58;30.80;28.70
64549;DHT22;49838;51.798;10.954;2023-05-15T05:29:25;31.10;28.70
64549;DHT22;49838;51.798;10.954;2023-05-15T05:31:52;31.30;28.60
64549;DHT22;49838;51.798;10.954;2023-05-15T05:34:20;31.60;28.50
64549;DHT22;49838;51.798;10.954;2023-05-15T05:36:49;31.70;28.50
64549;DHT22;49838;51.798;10.954;2023-05-15T05:39:17;32.00;28.70
64549;DHT22;49838;51.798;10.954;2023-05-15T05:41:44;32.40;28.60
64549;DHT22;49838;51.798;10.954;2023-05-15T05:44:11;32.70;28.60
64549;DHT22;49838;51.798;10.954;2023-05-15T05:46:39;33.10;28.60
64549;DHT22;49838;51.798;10.954;2023-05-15T05:49:06;33.40;28.60
64549;DHT22;49838;51.798;10.954;2023-05-15T05:51:34;33.50;28.30
64549;DHT22;49838;51.798;10.954;2023-05-15T05:54:04;33.10;28.20
64549;DHT22;49838;51.798;10.954;2023-05-15T05:56:31;32.70;28.40
64549;DHT22;49838;51.798;10.954;2023-05-15T05:58:59;32.30;29.10
64549;DHT22;49838;51.798;10.954;2023-05-15T06:01:26;32.10;28.40
64549;DHT22;49838;51.798;10.954;2023-05-15T06:03:54;32.00;28.40
64549;DHT22;49838;51.798;10.954;2023-05-15T06:06:22;32.00;27.90
64549;DHT22;49838;51.798;10.954;2023-05-15T06:08:49;31.70;28.10
64549;DHT22;49838;51.798;10.954;2023-05-15T06:11:18;31.60;28.40
64549;DHT22;49838;51.798;10.954;2023-05-15T06:13:46;31.80;28.30
64549;DHT22;49838;51.798;10.954;2023-05-15T06:16:13;32.00;28.30
64549;DHT22;49838;51.798;10.954;2023-05-15T06:18:41;32.00;27.90
64549;DHT22;49838;51.798;10.954;2023-05-15T06:21:08;31.70;27.90
64549;DHT22;49838;51.798;10.954;2023-05-15T06:23:36;31.30;27.90
64549;DHT22;49838;51.798;10.954;2023-05-15T06:26:03;30.70;28.30
64549;DHT22;49838;51.798;10.954;2023-05-15T06:28:33;30.20;28.40
64549;DHT22;49838;51.798;10.954;2023-05-15T06:31:00;29.90;28.50
64549;DHT22;49838;51.798;10.954;2023-05-15T06:33:27;29.40;28.50
64549;DHT22;49838;51.798;10.954;2023-05-15T06:35:55;29.00;28.70
64549;DHT22;49838;51.798;10.954;2023-05-15T06:38:22;28.70;28.80
64549;DHT22;49838;51.798;10.954;2023-05-15T06:40:49;28.50;28.80
64549;DHT22;49838;51.798;10.954;2023-05-15T06:43:17;28.20;28.70
64549;DHT22;49838;51.798;10.954;2023-05-15T06:45:45;27.80;28.80
64549;DHT22;49838;51.798;10.954;2023-05-15T06:48:12;27.50;28.90
64549;DHT22;49838;51.798;10.954;2023-05-15T06:50:40;27.30;29.00
64549;DHT22;49838;51.798;10.954;2023-05-15T06:53:08;27.10;29.10
64549;DHT22;49838;51.798;10.954;2023-05-15T06:55:35;27.00;29.20
64549;DHT22;49838;51.798;10.954;2023-05-15T06:58:03;26.80;29.30
64549;DHT22;49838;51.798;10.954;2023-05-15T07:00:31;26.80;29.40
64549;DHT22;49838;51.798;10.954;2023-05-15T07:03:00;26.80;29.30
64549;DHT22;49838;51.798;10.954;2023-05-15T07:05:27;26.70;29.30
64549;DHT22;49838;51.798;10.954;2023-05-15T07:07:55;26.50;29.30
64549;DHT22;49838;51.798;10.954;2023-05-15T07:10:22;26.50;29.30
64549;DHT22;49838;51.798;10.954;2023-05-15T07:12:49;26.40;29.40
64549;DHT22;49838;51.798;10.954;2023-05-15T07:15:17;26.40;29.40
64549;DHT22;49838;51.798;10.954;2023-05-15T07:17:44;26.50;29.40
64549;DHT22;49838;51.798;10.954;2023-05-15T07:20:13;26.50;29.90
64549;DHT22;49838;51.798;10.954;2023-05-15T07:22:40;26.40;29.40
64549;DHT22;49838;51.798;10.954;2023-05-15T07:25:08;26.40;29.40
64549;DHT22;49838;51.798;10.954;2023-05-15T07:27:36;26.50;29.40
64549;DHT22;49838;51.798;10.954;2023-05-15T07:30:03;26.60;29.40
64549;DHT22;49838;51.798;10.954;2023-05-15T07:32:31;26.70;29.50
64549;DHT22;49838;51.798;10.954;2023-05-15T07:34:59;26.80;29.50
64549;DHT22;49838;51.798;10.954;2023-05-15T07:37:28;27.00;29.50
64549;DHT22;49838;51.798;10.954;2023-05-15T07:39:55;27.20;29.60
64549;DHT22;49838;51.798;10.954;2023-05-15T07:42:23;27.30;29.60
64549;DHT22;49838;51.798;10.954;2023-05-15T07:44:51;27.50;29.60
64549;DHT22;49838;51.798;10.954;2023-05-15T07:47:18;27.60;29.60
64549;DHT22;49838;51.798;10.954;2023-05-15T07:49:46;27.70;29.50
64549;DHT22;49838;51.798;10.954;2023-05-15T07:52:13;27.80;29.60
64549;DHT22;49838;51.798;10.954;2023-05-15T07:54:42;27.90;29.60
64549;DHT22;49838;51.798;10.954;2023-05-15T07:57:09;28.00;29.60
64549;DHT22;49838;51.798;10.954;2023-05-15T07:59:37;28.10;29.60
64549;DHT22;49838;51.798;10.954;2023-05-15T08:02:05;28.10;29.60
64549;DHT22;49838;51.798;10.954;2023-05-15T08:04:32;28.20;29.60
64549;DHT22;49838;51.798;10.954;2023-05-15T08:07:00;28.20;29.60
64549;DHT22;49838;51.798;10.954;2023-05-15T08:09:27;28.20;29.50
64549;DHT22;49838;51.798;10.954;2023-05-15T08:12:12;28.20;29.50
64549;DHT22;49838;51.798;10.954;2023-05-15T08:14:42;28.20;29.90
64549;DHT22;49838;51.798;10.954;2023-05-15T08:17:09;28.20;29.30
64549;DHT22;49838;51.798;10.954;2023-05-15T08:19:37;28.30;29.40
64549;DHT22;49838;51.798;10.954;2023-05-15T08:22:04;28.40;29.30
64549;DHT22;49838;51.798;10.954;2023-05-15T08:24:32;28.70;29.50
64549;DHT22;49838;51.798;10.954;2023-05-15T08:27:00;29.10;29.40
64549;DHT22;49838;51.798;10.954;2023-05-15T08:29:28;29.40;29.40
64549;DHT22;49838;51.798;10.954;2023-05-15T08:31:55;29.80;29.60
64549;DHT22;49838;51.798;10.954;2023-05-15T08:34:23;30.00;29.50
64549;DHT22;49838;51.798;10.954;2023-05-15T08:36:50;30.30;29.10
64549;DHT22;49838;51.798;10.954;2023-05-15T08:39:18;30.70;29.50
64549;DHT22;49838;51.798;10.954;2023-05-15T08:41:47;31.10;29.20
64549;DHT22;49838;51.798;10.954;2023-05-15T08:44:20;31.20;29.10
64549;DHT22;49838;51.798;10.954;2023-05-15T08:46:49;31.30;29.00
64549;DHT22;49838;51.798;10.954;2023-05-15T08:49:20;31.30;28.80
64549;DHT22;49838;51.798;10.954;2023-05-15T08:51:58;31.20;28.70
64549;DHT22;49838;51.798;10.954;2023-05-15T08:54:25;31.00;28.70
64549;DHT22;49838;51.798;10.954;2023-05-15T08:56:53;31.00;28.80
64549;DHT22;49838;51.798;10.954;2023-05-15T08:59:22;30.80;28.60
64549;DHT22;49838;51.798;10.954;2023-05-15T09:01:49;30.80;28.80
64549;DHT22;49838;51.798;10.954;2023-05-15T09:04:17;30.70;28.60
64549;DHT22;49838;51.798;10.954;2023-05-15T09:06:46;30.60;28.60
64549;DHT22;49838;51.798;10.954;2023-05-15T09:09:14;30.50;28.70
64549;DHT22;49838;51.798;10.954;2023-05-15T09:11:45;30.50;28.70
64549;DHT22;49838;51.798;10.954;2023-05-15T09:14:14;30.50;28.50
64549;DHT22;49838;51.798;10.954;2023-05-15T09:16:42;30.40;28.60
64549;DHT22;49838;51.798;10.954;2023-05-15T09:19:11;30.40;28.60
64549;DHT22;49838;51.798;10.954;2023-05-15T09:21:41;30.40;28.60
64549;DHT22;49838;51.798;10.954;2023-05-15T09:24:15;30.50;28.70
64549;DHT22;49838;51.798;10.954;2023-05-15T09:26:43;30.40;28.60
64549;DHT22;49838;51.798;10.954;2023-05-15T09:29:14;30.50;28.80
64549;DHT22;49838;51.798;10.954;2023-05-15T09:31:46;30.90;29.20
64549;DHT22;49838;51.798;10.954;2023-05-15T09:34:13;31.40;29.70
64549;DHT22;49838;51.798;10.954;2023-05-15T09:36:43;31.80;29.70
64549;DHT22;49838;51.798;10.954;2023-05-15T09:39:10;32.20;29.30
64549;DHT22;49838;51.798;10.954;2023-05-15T09:41:40;32.50;29.70
64549;DHT22;49838;51.798;10.954;2023-05-15T09:44:16;32.80;29.30
64549;DHT22;49838;51.798;10.954;2023-05-15T09:46:46;33.20;29.10
64549;DHT22;49838;51.798;10.954;2023-05-15T09:49:14;33.60;29.30
64549;DHT22;49838;51.798;10.954;2023-05-15T09:51:42;33.90;28.90
64549;DHT22;49838;51.798;10.954;2023-05-15T09:54:13;34.20;28.70
64549;DHT22;49838;51.798;10.954;2023-05-15T09:56:41;34.50;28.80
64549;DHT22;49838;51.798;10.954;2023-05-15T09:59:11;34.70;28.50
64549;DHT22;49838;51.798;10.954;2023-05-15T10:01:41;34.70;28.20
64549;DHT22;49838;51.798;10.954;2023-05-15T10:04:12;34.90;28.00
64549;DHT22;49838;51.798;10.954;2023-05-15T10:06:40;35.10;28.00
64549;DHT22;49838;51.798;10.954;2023-05-15T10:09:09;35.10;27.80
64549;DHT22;49838;51.798;10.954;2023-05-15T10:11:39;35.00;27.80
64549;DHT22;49838;51.798;10.954;2023-05-15T10:14:08;34.90;27.30
64549;DHT22;49838;51.798;10.954;2023-05-15T10:16:38;34.70;27.10
64549;DHT22;49838;51.798;10.954;2023-05-15T10:19:06;34.50;27.10
64549;DHT22;49838;51.798;10.954;2023-05-15T10:21:37;34.50;27.40
64549;DHT22;49838;51.798;10.954;2023-05-15T10:24:05;34.50;27.80
64549;DHT22;49838;51.798;10.954;2023-05-15T10:26:37;34.40;27.20
64549;DHT22;49838;51.798;10.954;2023-05-15T10:29:07;34.30;26.80
64549;DHT22;49838;51.798;10.954;2023-05-15T10:31:35;34.20;27.10
64549;DHT22;49838;51.798;10.954;2023-05-15T10:34:03;34.10;27.20
64549;DHT22;49838;51.798;10.954;2023-05-15T10:36:33;34.00;26.90
64549;DHT22;49838;51.798;10.954;2023-05-15T10:39:03;34.00;26.60
64549;DHT22;49838;51.798;10.954;2023-05-15T10:41:34;33.90;26.30
64549;DHT22;49838;51.798;10.954;2023-05-15T10:44:03;33.80;26.60
64549;DHT22;49838;51.798;10.954;2023-05-15T10:46:32;33.80;26.90
64549;DHT22;49838;51.798;10.954;2023-05-15T10:49:01;34.00;27.00
64549;DHT22;49838;51.798;10.954;2023-05-15T10:51:29;34.20;26.70
64549;DHT22;49838;51.798;10.954;2023-05-15T10:53:58;34.40;26.80
64549;DHT22;49838;51.798;10.954;2023-05-15T10:56:30;34.40;26.30
64549;DHT22;49838;51.798;10.954;2023-05-15T10:59:03;34.40;26.30
64549;DHT22;49838;51.798;10.954;2023-05-15T11:01:33;34.20;25.90
64549;DHT22;49838;51.798;10.954;2023-05-15T11:04:05;34.00;26.40
64549;DHT22;49838;51.798;10.954;2023-05-15T11:06:34;33.80;26.40
64549;DHT22;49838;51.798;10.954;2023-05-15T11:12:07;33.40;26.10
64549;DHT22;49838;51.798;10.954;2023-05-15T11:14:37;33.10;26.00
64549;DHT22;49838;51.798;10.954;2023-05-15T11:17:06;32.90;26.00
64549;DHT22;49838;51.798;10.954;2023-05-15T11:19:53;32.70;26.00
64549;DHT22;49838;51.798;10.954;2023-05-15T11:22:27;32.50;25.70
64549;DHT22;49838;51.798;10.954;2023-05-15T11:25:00;32.20;25.20
64549;DHT22;49838;51.798;10.954;2023-05-15T11:27:30;31.80;25.40
64549;DHT22;49838;51.798;10.954;2023-05-15T11:30:02;31.50;26.00
64549;DHT22;49838;51.798;10.954;2023-05-15T11:32:30;31.40;26.10
64549;DHT22;49838;51.798;10.954;2023-05-15T11:34:58;31.40;26.20
64549;DHT22;49838;51.798;10.954;2023-05-15T11:37:26;31.40;26.40
64549;DHT22;49838;51.798;10.954;2023-05-15T11:39:54;31.40;26.30
64549;DHT22;49838;51.798;10.954;2023-05-15T11:42:21;31.40;26.30
64549;DHT22;49838;51.798;10.954;2023-05-15T11:44:50;31.50;26.40
64549;DHT22;49838;51.798;10.954;2023-05-15T11:47:18;31.50;26.60
64549;DHT22;49838;51.798;10.954;2023-05-15T11:49:46;31.50;26.60
64549;DHT22;49838;51.798;10.954;2023-05-15T11:52:15;31.50;26.40
64549;DHT22;49838;51.798;10.954;2023-05-15T11:54:42;31.40;26.30
64549;DHT22;49838;51.798;10.954;2023-05-15T11:57:10;31.40;26.00
64549;DHT22;49838;51.798;10.954;2023-05-15T11:59:38;31.30;26.30
64549;DHT22;49838;51.798;10.954;2023-05-15T12:02:06;31.40;26.40
64549;DHT22;49838;51.798;10.954;2023-05-15T12:04:34;31.50;27.00
64549;DHT22;49838;51.798;10.954;2023-05-15T12:07:01;31.60;26.50
64549;DHT22;49838;51.798;10.954;2023-05-15T12:09:29;31.50;26.30
64549;DHT22;49838;51.798;10.954;2023-05-15T12:11:56;31.40;26.30
64549;DHT22;49838;51.798;10.954;2023-05-15T12:14:26;31.40;26.20
64549;DHT22;49838;51.798;10.954;2023-05-15T12:16:54;31.30;26.30
64549;DHT22;49838;51.798;10.954;2023-05-15T12:19:28;31.20;26.20
64549;DHT22;49838;51.798;10.954;2023-05-15T12:21:56;31.20;26.30
64549;DHT22;49838;51.798;10.954;2023-05-15T12:24:24;31.00;26.20
64549;DHT22;49838;51.798;10.954;2023-05-15T12:26:52;30.80;26.30
64549;DHT22;49838;51.798;10.954;2023-05-15T12:29:20;30.60;26.50
64549;DHT22;49838;51.798;10.954;2023-05-15T12:31:47;30.50;26.50
64549;DHT22;49838;51.798;10.954;2023-05-15T12:34:18;30.40;26.50
64549;DHT22;49838;51.798;10.954;2023-05-15T12:36:47;30.20;26.40
64549;DHT22;49838;51.798;10.954;2023-05-15T12:39:15;30.20;26.50
64549;DHT22;49838;51.798;10.954;2023-05-15T12:41:42;30.10;26.40
64549;DHT22;49838;51.798;10.954;2023-05-15T12:44:14;30.10;26.50
64549;DHT22;49838;51.798;10.954;2023-05-15T12:46:42;30.00;26.60
64549;DHT22;49838;51.798;10.954;2023-05-15T12:49:09;30.00;26.50
64549;DHT22;49838;51.798;10.954;2023-05-15T12:51:41;29.90;26.60
64549;DHT22;49838;51.798;10.954;2023-05-15T12:54:16;30.00;26.60
64549;DHT22;49838;51.798;10.954;2023-05-15T12:56:45;29.90;26.60
64549;DHT22;49838;51.798;10.954;2023-05-15T12:59:13;29.80;26.60
64549;DHT22;49838;51.798;10.954;2023-05-15T13:01:40;29.70;26.60
64549;DHT22;49838;51.798;10.954;2023-05-15T13:04:08;29.50;26.70
64549;DHT22;49838;51.798;10.954;2023-05-15T13:06:37;29.40;26.90
64549;DHT22;49838;51.798;10.954;2023-05-15T13:09:05;29.30;26.90
64549;DHT22;49838;51.798;10.954;2023-05-15T13:11:34;29.30;26.90
64549;DHT22;49838;51.798;10.954;2023-05-15T13:14:07;29.30;26.90
64549;DHT22;49838;51.798;10.954;2023-05-15T13:16:35;29.40;26.80
64549;DHT22;49838;51.798;10.954;2023-05-15T13:19:03;29.40;26.60
64549;DHT22;49838;51.798;10.954;2023-05-15T13:21:32;29.30;26.70
64549;DHT22;49838;51.798;10.954;2023-05-15T13:23:59;29.30;26.70
64549;DHT22;49838;51.798;10.954;2023-05-15T13:26:26;29.20;26.70
64549;DHT22;49838;51.798;10.954;2023-05-15T13:28:55;29.00;26.80
64549;DHT22;49838;51.798;10.954;2023-05-15T13:31:22;28.90;27.00
64549;DHT22;49838;51.798;10.954;2023-05-15T13:33:50;28.80;27.10
64549;DHT22;49838;51.798;10.954;2023-05-15T13:36:17;28.70;27.10
64549;DHT22;49838;51.798;10.954;2023-05-15T13:38:44;28.70;27.10
64549;DHT22;49838;51.798;10.954;2023-05-15T13:41:11;28.70;27.10
64549;DHT22;49838;51.798;10.954;2023-05-15T13:43:39;28.70;27.10
64549;DHT22;49838;51.798;10.954;2023-05-15T13:46:08;28.80;27.20
64549;DHT22;49838;51.798;10.954;2023-05-15T13:48:35;28.80;27.20
64549;DHT22;49838;51.798;10.954;2023-05-15T13:51:03;28.90;27.10
64549;DHT22;49838;51.798;10.954;2023-05-15T13:53:31;28.90;27.10
64549;DHT22;49838;51.798;10.954;2023-05-15T13:56:01;29.00;27.10
64549;DHT22;49838;51.798;10.954;2023-05-15T13:58:28;29.00;27.10
64549;DHT22;49838;51.798;10.954;2023-05-15T14:00:58;29.00;27.00
64549;DHT22;49838;51.798;10.954;2023-05-15T14:03:30;29.00;27.10
64549;DHT22;49838;51.798;10.954;2023-05-15T14:05:57;29.10;27.00
64549;DHT22;49838;51.798;10.954;2023-05-15T14:08:24;29.20;27.00
64549;DHT22;49838;51.798;10.954;2023-05-15T14:10:52;29.20;26.90
64549;DHT22;49838;51.798;10.954;2023-05-15T14:13:19;29.10;26.80
64549;DHT22;49838;51.798;10.954;2023-05-15T14:15:47;29.00;26.70
64549;DHT22;49838;51.798;10.954;2023-05-15T14:18:15;29.00;26.90
64549;DHT22;49838;51.798;10.954;2023-05-15T14:20:43;29.00;26.90
64549;DHT22;49838;51.798;10.954;2023-05-15T14:23:11;28.90;26.80
64549;DHT22;49838;51.798;10.954;2023-05-15T14:25:41;28.90;26.90
64549;DHT22;49838;51.798;10.954;2023-05-15T14:28:10;28.90;26.80
64549;DHT22;49838;51.798;10.954;2023-05-15T14:30:38;28.90;26.70
64549;DHT22;49838;51.798;10.954;2023-05-15T14:33:05;28.90;26.70
64549;DHT22;49838;51.798;10.954;2023-05-15T14:35:32;29.00;26.60
64549;DHT22;49838;51.798;10.954;2023-05-15T14:38:03;28.90;26.50
64549;DHT22;49838;51.798;10.954;2023-05-15T14:40:33;28.80;26.50
64549;DHT22;49838;51.798;10.954;2023-05-15T14:43:00;28.90;26.60
64549;DHT22;49838;51.798;10.954;2023-05-15T14:45:27;29.00;26.70
64549;DHT22;49838;51.798;10.954;2023-05-15T14:47:59;29.10;26.70
64549;DHT22;49838;51.798;10.954;2023-05-15T14:50:29;29.20;26.70
64549;DHT22;49838;51.798;10.954;2023-05-15T14:52:59;29.20;26.60
64549;DHT22;49838;51.798;10.954;2023-05-15T14:55:28;29.30;26.70
64549;DHT22;49838;51.798;10.954;2023-05-15T14:57:58;29.30;26.70
64549;DHT22;49838;51.798;10.954;2023-05-15T15:00:25;29.30;26.70
64549;DHT22;49838;51.798;10.954;2023-05-15T15:02:53;29.20;26.80
64549;DHT22;49838;51.798;10.954;2023-05-15T15:05:20;29.10;26.90
64549;DHT22;49838;51.798;10.954;2023-05-15T15:07:57;29.20;26.90
64549;DHT22;49838;51.798;10.954;2023-05-15T15:10:30;29.10;26.90
64549;DHT22;49838;51.798;10.954;2023-05-15T15:12:59;29.10;27.00
64549;DHT22;49838;51.798;10.954;2023-05-15T15:15:30;29.00;27.00
64549;DHT22;49838;51.798;10.954;2023-05-15T15:17:59;29.00;27.00
64549;DHT22;49838;51.798;10.954;2023-05-15T15:20:27;29.00;27.10
64549;DHT22;49838;51.798;10.954;2023-05-15T15:22:55;28.90;27.00
64549;DHT22;49838;51.798;10.954;2023-05-15T15:25:22;28.90;27.60
64549;DHT22;49838;51.798;10.954;2023-05-15T15:27:51;28.80;27.10